Time;durP1;ratioP1;P1;durP2;ratioP2;P2;SDS_P1;SDS_P2;PMS_P1;PMS_P2;Temp;Humidity;BMP_temperature;BMP_pressure;BME280_temperature;BME280_humidity;BME280_pressure;Samples;Min_cycle;Max_cycle;Signal;HPM_P1;HPM_P2
2022/06/15 00:00:32;;;;;;;5.60;3.08;;;;;;;;;;6096195;23;20010;-80
2022/06/15 00:02:58;;;;;;;3.20;2.80;;;;;;;;;;6096293;23;20003;-80
2022/06/15 00:05:24;;;;;;;4.78;3.30;;;;;;;;;;6095793;23;20109;-83
2022/06/15 00:07:52;;;;;;;4.60;3.47;;;;;;;;;;6096010;23;20434;-80
2022/06/15 00:10:19;;;;;;;3.67;2.75;;;;;;;;;;6095667;23;20030;-83
2022/06/15 00:12:45;;;;;;;3.58;3.25;;;;;;;;;;6095788;23;19998;-82
2022/06/15 00:15:11;;;;;;;4.25;3.20;;;;;;;;;;6095861;23;20058;-82
2022/06/15 00:17:37;;;;;;;3.60;3.17;;;;;;;;;;6070571;23;20009;-84
2022/06/15 00:20:04;;;;;;;3.58;2.65;;;;;;;;;;6096153;23;20006;-82
2022/06/15 00:22:30;;;;;;;4.18;2.97;;;;;;;;;;6070234;23;20037;-84
2022/06/15 00:24:56;;;;;;;3.75;2.40;;;;;;;;;;6096228;23;20326;-84
2022/06/15 00:27:22;;;;;;;3.53;3.22;;;;;;;;;;6070410;23;20013;-82
2022/06/15 00:29:48;;;;;;;3.35;3.03;;;;;;;;;;6070659;23;20013;-80
2022/06/15 00:32:14;;;;;;;3.67;3.35;;;;;;;;;;6070286;23;20383;-82
2022/06/15 00:34:40;;;;;;;4.85;3.47;;;;;;;;;;6095908;23;20003;-82
2022/06/15 00:37:07;;;;;;;4.15;3.15;;;;;;;;;;6070532;23;20328;-82
2022/06/15 00:39:34;;;;;;;4.60;3.20;;;;;;;;;;6095874;23;20438;-82
2022/06/15 00:42:00;;;;;;;5.47;2.90;;;;;;;;;;6096286;23;20062;-83
2022/06/15 00:44:31;;;;;;;4.05;3.00;;;;;;;;;;6097522;23;20070;-82
2022/06/15 00:47:02;;;;;;;6.03;3.20;;;;;;;;;;6097861;23;20006;-84
2022/06/15 00:49:28;;;;;;;6.10;2.80;;;;;;;;;;6072000;23;20013;-85
2022/06/15 00:51:59;;;;;;;3.58;2.85;;;;;;;;;;6098200;23;20014;-84
2022/06/15 00:54:26;;;;;;;5.18;2.90;;;;;;;;;;6097526;23;20013;-84
2022/06/15 00:56:53;;;;;;;3.28;2.97;;;;;;;;;;6097702;23;20041;-79
2022/06/15 00:59:38;;;;;;;3.40;3.10;;;;;;;;;;6097396;23;20009;-83
2022/06/15 01:02:04;;;;;;;;;;;;;;;;;;6098104;23;20057;-81
2022/06/15 01:04:35;;;;;;;4.75;3.20;;;;;;;;;;6097745;23;19909;-82
2022/06/15 01:07:19;;;;;;;4.43;2.85;;;;;;;;;;6097591;23;20334;-81
2022/06/15 01:09:45;;;;;;;;;;;;;;;;;;6097774;23;20308;-81
2022/06/15 01:12:27;;;;;;;4.20;3.15;;;;;;;;;;6097581;23;19912;-84
2022/06/15 01:15:11;;;;;;;5.95;3.40;;;;;;;;;;6097210;23;20018;-83
2022/06/15 01:17:47;;;;;;;4.72;3.25;;;;;;;;;;6071809;23;20037;-82
2022/06/15 01:20:13;;;;;;;3.90;2.88;;;;;;;;;;6097331;23;20002;-84
2022/06/15 01:22:48;;;;;;;4.82;2.90;;;;;;;;;;6097529;23;19998;-80
2022/06/15 01:25:35;;;;;;;4.15;2.80;;;;;;;;;;6097558;23;20006;-86
2022/06/15 01:28:04;;;;;;;3.40;2.92;;;;;;;;;;6097272;23;20002;-83
2022/06/15 01:30:49;;;;;;;4.57;3.13;;;;;;;;;;6097205;23;19998;-80
2022/06/15 01:33:34;;;;;;;5.43;3.15;;;;;;;;;;6097550;23;20002;-79
2022/06/15 01:36:00;;;;;;;;;;;;;;;;;;6097911;23;20021;-86
2022/06/15 01:38:32;;;;;;;5.55;3.45;;;;;;;;;;6097100;23;20334;-82
2022/06/15 01:41:04;;;;;;;4.28;2.92;;;;;;;;;;6097170;23;20375;-83
2022/06/15 01:43:32;;;;;;;4.50;3.72;;;;;;;;;;6097066;23;20074;-85
2022/06/15 01:45:59;;;;;;;7.55;3.13;;;;;;;;;;6097653;23;20006;-82
2022/06/15 01:48:27;;;;;;;3.35;3.05;;;;;;;;;;6096893;23;19998;-82
2022/06/15 01:50:55;;;;;;;3.45;2.88;;;;;;;;;;6097075;23;20046;-80
2022/06/15 01:53:25;;;;;;;3.92;2.63;;;;;;;;;;6096917;23;20042;-81
2022/06/15 01:56:02;;;;;;;4.00;2.80;;;;;;;;;;6096817;23;20005;-81
2022/06/15 01:58:30;;;;;;;5.57;3.40;;;;;;;;;;6071597;23;20003;-82
2022/06/15 02:01:01;;;;;;;4.05;3.35;;;;;;;;;;6096979;23;20374;-83
2022/06/15 02:03:32;;;;;;;3.40;3.10;;;;;;;;;;6097252;23;20457;-84
2022/06/15 02:06:17;;;;;;;4.22;3.00;;;;;;;;;;6096789;23;20017;-82
2022/06/15 02:09:07;;;;;;;5.13;3.40;;;;;;;;;;6096808;23;20002;-83
2022/06/15 02:11:41;;;;;;;3.50;3.20;;;;;;;;;;6096702;23;20060;-81
2022/06/15 02:14:22;;;;;;;3.67;2.90;;;;;;;;;;6096777;23;20026;-83
2022/06/15 02:16:53;;;;;;;5.90;2.92;;;;;;;;;;6097118;23;20013;-80
2022/06/15 02:19:22;;;;;;;3.55;2.65;;;;;;;;;;6096853;23;20150;-84
2022/06/15 02:21:50;;;;;;;4.13;3.50;;;;;;;;;;6096844;23;20058;-85
2022/06/15 02:24:17;;;;;;;4.30;3.50;;;;;;;;;;6096780;23;20331;-85
2022/06/15 02:26:43;;;;;;;4.20;3.40;;;;;;;;;;6071414;23;20002;-81
2022/06/15 02:29:23;;;;;;;3.78;3.47;;;;;;;;;;6096696;23;20387;-85
2022/06/15 02:31:50;;;;;;;5.00;3.60;;;;;;;;;;6096596;23;20006;-82
2022/06/15 02:34:16;;;;;;;3.50;3.15;;;;;;;;;;6097012;23;20435;-86
2022/06/15 02:36:43;;;;;;;4.15;3.28;;;;;;;;;;6096744;23;20009;-85
2022/06/15 02:39:11;;;;;;;4.63;3.50;;;;;;;;;;6071246;23;20010;-82
2022/06/15 02:41:37;;;;;;;3.80;3.42;;;;;;;;;;6071365;23;20014;-82
2022/06/15 02:44:04;;;;;;;5.15;3.00;;;;;;;;;;6096569;23;20454;-84
2022/06/15 02:46:32;;;;;;;4.95;2.97;;;;;;;;;;6097115;23;20002;-84
2022/06/15 02:48:59;;;;;;;4.35;3.40;;;;;;;;;;6096404;23;20060;-84
2022/06/15 02:51:30;;;;;;;4.55;3.05;;;;;;;;;;6096993;23;20022;-82
2022/06/15 02:53:58;;;;;;;4.28;2.95;;;;;;;;;;6096474;23;20034;-86
2022/06/15 02:56:25;;;;;;;3.47;3.15;;;;;;;;;;6096794;23;20021;-81
2022/06/15 02:58:53;;;;;;;4.10;3.17;;;;;;;;;;6070893;23;20007;-85
2022/06/15 03:01:22;;;;;;;3.60;3.30;;;;;;;;;;6071175;23;20082;-81
2022/06/15 03:03:48;;;;;;;3.85;3.20;;;;;;;;;;6096719;23;20046;-80
2022/06/15 03:06:16;;;;;;;5.75;3.13;;;;;;;;;;6096884;23;20042;-82
2022/06/15 03:08:42;;;;;;;3.70;3.40;;;;;;;;;;6096481;23;20009;-88
2022/06/15 03:11:09;;;;;;;5.70;4.03;;;;;;;;;;6096365;23;20006;-87
2022/06/15 03:13:35;;;;;;;4.43;3.35;;;;;;;;;;6096569;23;20026;-84
2022/06/15 03:16:02;;;;;;;3.70;2.90;;;;;;;;;;6096348;23;20006;-85
2022/06/15 03:18:28;;;;;;;4.03;3.55;;;;;;;;;;6096583;23;20014;-84
2022/06/15 03:20:58;;;;;;;5.78;3.25;;;;;;;;;;6096150;23;20002;-84
2022/06/15 03:23:25;;;;;;;4.35;3.15;;;;;;;;;;6071000;23;20073;-83
2022/06/15 03:26:10;;;;;;;6.80;3.85;;;;;;;;;;6070756;23;20009;-83
2022/06/15 03:28:36;;;;;;;5.25;3.63;;;;;;;;;;6096180;23;20426;-84
2022/06/15 03:31:03;;;;;;;5.30;4.05;;;;;;;;;;6096299;23;20026;-84
2022/06/15 03:33:29;;;;;;;4.90;3.20;;;;;;;;;;6096415;23;19998;-84
2022/06/15 03:35:55;;;;;;;3.47;3.17;;;;;;;;;;6096272;23;20005;-80
2022/06/15 03:38:22;;;;;;;4.28;3.88;;;;;;;;;;6096372;23;20059;-81
2022/06/15 03:40:51;;;;;;;4.03;3.55;;;;;;;;;;6096168;23;20053;-85
2022/06/15 03:43:18;;;;;;;5.82;3.97;;;;;;;;;;6096152;23;20087;-81
2022/06/15 03:45:44;;;;;;;5.10;4.00;;;;;;;;;;6096079;23;20026;-82
2022/06/15 03:48:11;;;;;;;3.78;3.22;;;;;;;;;;6096196;23;20006;-83
2022/06/15 03:50:38;;;;;;;5.72;3.75;;;;;;;;;;6095954;23;20088;-85
2022/06/15 03:53:05;;;;;;;3.22;2.92;;;;;;;;;;6070695;23;20439;-83
2022/06/15 03:55:32;;;;;;;3.80;3.33;;;;;;;;;;6095956;23;20435;-80
2022/06/15 03:58:00;;;;;;;4.93;3.67;;;;;;;;;;6096056;23;20003;-80
2022/06/15 04:00:28;;;;;;;5.80;4.22;;;;;;;;;;6096371;23;20033;-85
2022/06/15 04:02:54;;;;;;;3.97;3.60;;;;;;;;;;6096270;23;19998;-80
2022/06/15 04:05:24;;;;;;;4.43;3.97;;;;;;;;;;6096703;23;20003;-82
2022/06/15 04:10:54;;;;;;;3.42;3.13;;;;;;;;;;6096178;23;20022;-81
2022/06/15 04:13:22;;;;;;;4.38;3.83;;;;;;;;;;6095776;23;20022;-82
2022/06/15 04:15:51;;;;;;;4.10;3.10;;;;;;;;;;6096207;23;19999;-84
2022/06/15 04:18:21;;;;;;;4.25;3.63;;;;;;;;;;6097031;23;20002;-83
2022/06/15 04:20:54;;;;;;;4.82;3.50;;;;;;;;;;6098157;23;20017;-83
2022/06/15 04:23:24;;;;;;;4.65;4.03;;;;;;;;;;6072617;23;20335;-84
2022/06/15 04:26:03;;;;;;;8.65;6.63;;;;;;;;;;6097870;23;20450;-80
2022/06/15 04:28:33;;;;;;;5.57;3.92;;;;;;;;;;6072350;23;20002;-79
2022/06/15 04:31:23;;;;;;;4.18;3.40;;;;;;;;;;6097789;23;20029;-84
2022/06/15 04:33:49;;;;;;;3.65;3.30;;;;;;;;;;6072916;23;20038;-84
2022/06/15 04:36:20;;;;;;;4.82;3.65;;;;;;;;;;6097973;23;20002;-83
2022/06/15 04:38:55;;;;;;;5.32;3.30;;;;;;;;;;6097865;23;19998;-85
2022/06/15 04:41:21;;;;;;;5.07;3.20;;;;;;;;;;6097727;23;20337;-80
2022/06/15 04:43:55;;;;;;;3.70;3.08;;;;;;;;;;6097827;23;20007;-82
2022/06/15 04:46:21;;;;;;;3.78;3.38;;;;;;;;;;6097519;23;20033;-83
2022/06/15 04:48:50;;;;;;;3.85;3.55;;;;;;;;;;6072170;23;20089;-82
2022/06/15 04:51:20;;;;;;;6.43;3.78;;;;;;;;;;6071821;23;20017;-84
2022/06/15 04:53:47;;;;;;;3.78;3.40;;;;;;;;;;6097436;23;20010;-82
2022/06/15 04:56:13;;;;;;;3.88;3.58;;;;;;;;;;6097091;23;20002;-85
2022/06/15 04:58:43;;;;;;;13.63;9.32;;;;;;;;;;6097637;23;20007;-84
2022/06/15 05:01:09;;;;;;;13.15;11.35;;;;;;;;;;6097369;23;20002;-82
2022/06/15 05:03:37;;;;;;;6.05;3.90;;;;;;;;;;6097726;23;20379;-81
2022/06/15 05:06:15;;;;;;;5.65;3.45;;;;;;;;;;6097512;23;20057;-79
2022/06/15 05:08:41;;;;;;;3.97;3.58;;;;;;;;;;6097621;23;20002;-84
2022/06/15 05:11:08;;;;;;;4.45;4.05;;;;;;;;;;6097049;23;19998;-80
2022/06/15 05:13:36;;;;;;;4.82;3.20;;;;;;;;;;6097379;23;20045;-84
2022/06/15 05:16:02;;;;;;;4.40;3.40;;;;;;;;;;6096137;23;20006;-82
2022/06/15 05:18:29;;;;;;;5.35;3.13;;;;;;;;;;6097294;23;20006;-80
2022/06/15 05:20:55;;;;;;;5.20;2.67;;;;;;;;;;6096949;23;20002;-81
2022/06/15 05:23:21;;;;;;;3.13;2.83;;;;;;;;;;6096119;23;19999;-84
2022/06/15 05:25:49;;;;;;;3.92;3.08;;;;;;;;;;6096777;23;20380;-83
2022/06/15 05:28:15;;;;;;;5.53;3.00;;;;;;;;;;6097073;23;20070;-80
2022/06/15 05:30:43;;;;;;;6.93;3.00;;;;;;;;;;6097337;23;20021;-81
2022/06/15 05:33:10;;;;;;;4.60;2.92;;;;;;;;;;6094449;23;20005;-84
2022/06/15 05:35:36;;;;;;;5.28;3.38;;;;;;;;;;6094544;23;20010;-87
2022/06/15 05:38:02;;;;;;;3.00;2.70;;;;;;;;;;6066651;23;20427;-81
2022/06/15 05:40:29;;;;;;;3.40;2.67;;;;;;;;;;6093086;23;20002;-81
2022/06/15 05:42:56;;;;;;;4.20;2.33;;;;;;;;;;6094700;23;20025;-79
2022/06/15 05:45:24;;;;;;;3.80;2.50;;;;;;;;;;6095001;23;20036;-85
2022/06/15 05:47:50;;;;;;;3.22;2.20;;;;;;;;;;6095009;23;19998;-81
2022/06/15 05:50:19;;;;;;;2.95;2.47;;;;;;;;;;6068786;23;20334;-84
2022/06/15 05:52:45;;;;;;;4.68;2.58;;;;;;;;;;6095146;23;20008;-81
2022/06/15 05:55:11;;;;;;;3.60;2.25;;;;;;;;;;6095248;23;20050;-83
2022/06/15 05:57:37;;;;;;;4.93;2.78;;;;;;;;;;6095562;23;20014;-83
2022/06/15 06:00:06;;;;;;;3.17;2.28;;;;;;;;;;6093885;23;20006;-81
2022/06/15 06:02:40;;;;;;;5.65;2.88;;;;;;;;;;6068678;23;20453;-85
2022/06/15 06:05:08;;;;;;;2.83;2.20;;;;;;;;;;6045652;23;20010;-80
2022/06/15 06:07:34;;;;;;;3.92;2.17;;;;;;;;;;6094258;23;20049;-82
2022/06/15 06:10:00;;;;;;;6.75;6.05;;;;;;;;;;6094952;23;20002;-84
2022/06/15 06:12:44;;;;;;;15.73;7.95;;;;;;;;;;6094360;23;20016;-81
2022/06/15 06:15:10;;;;;;;8.85;7.15;;;;;;;;;;6068324;23;20022;-85
2022/06/15 06:17:37;;;;;;;3.33;3.03;;;;;;;;;;6069616;23;20034;-80
2022/06/15 06:20:03;;;;;;;3.42;2.78;;;;;;;;;;6094341;23;19998;-79
2022/06/15 06:22:29;;;;;;;4.50;2.20;;;;;;;;;;6093551;23;20338;-82
2022/06/15 06:24:55;;;;;;;3.63;2.75;;;;;;;;;;6093494;23;20065;-79
2022/06/15 06:27:21;;;;;;;4.28;2.72;;;;;;;;;;6094241;23;20006;-78
2022/06/15 06:29:47;;;;;;;4.32;2.17;;;;;;;;;;6094507;23;20006;-80
2022/06/15 06:32:14;;;;;;;5.22;2.25;;;;;;;;;;6093643;23;20014;-81
2022/06/15 06:34:40;;;;;;;2.35;1.90;;;;;;;;;;6093979;23;20135;-83
2022/06/15 06:37:07;;;;;;;3.35;2.25;;;;;;;;;;6094714;23;19998;-82
2022/06/15 06:39:40;;;;;;;4.35;2.65;;;;;;;;;;6095188;23;20009;-84
2022/06/15 06:42:10;;;;;;;3.70;1.92;;;;;;;;;;6069172;23;20091;-84
2022/06/15 06:44:36;;;;;;;6.78;4.15;;;;;;;;;;6094764;23;20013;-81
2022/06/15 06:47:20;;;;;;;3.25;1.80;;;;;;;;;;6091968;23;20041;-79
2022/06/15 06:49:49;;;;;;;4.30;2.67;;;;;;;;;;6067992;23;20061;-82
2022/06/15 06:52:22;;;;;;;4.70;2.20;;;;;;;;;;6069169;23;20367;-82
2022/06/15 06:54:48;;;;;;;4.00;2.47;;;;;;;;;;6094887;23;19999;-84
2022/06/15 06:57:14;;;;;;;2.95;1.80;;;;;;;;;;6094596;23;20214;-79
2022/06/15 06:59:41;;;;;;;14.38;11.38;;;;;;;;;;6094278;23;19998;-84
2022/06/15 07:02:09;;;;;;;3.75;2.42;;;;;;;;;;6094590;23;20062;-84
2022/06/15 07:04:35;;;;;;;5.65;2.70;;;;;;;;;;6068936;23;20018;-81
2022/06/15 07:07:01;;;;;;;2.63;1.60;;;;;;;;;;6069057;23;20494;-82
2022/06/15 07:09:29;;;;;;;3.15;1.98;;;;;;;;;;6094723;23;20093;-82
2022/06/15 07:11:56;;;;;;;3.83;2.20;;;;;;;;;;6093169;23;20754;-84
2022/06/15 07:14:22;;;;;;;5.60;2.10;;;;;;;;;;6093846;23;20018;-83
2022/06/15 07:16:48;;;;;;;2.78;1.98;;;;;;;;;;6094331;23;20058;-81
2022/06/15 07:19:14;;;;;;;4.38;2.40;;;;;;;;;;6095044;23;20013;-84
2022/06/15 07:21:40;;;;;;;7.38;3.28;;;;;;;;;;6093863;23;20030;-79
2022/06/15 07:24:07;;;;;;;6.15;3.42;;;;;;;;;;6094247;23;20005;-81
2022/06/15 07:26:36;;;;;;;5.30;2.95;;;;;;;;;;6094062;23;20026;-83
2022/06/15 07:29:05;;;;;;;5.07;3.20;;;;;;;;;;6094593;23;19999;-84
2022/06/15 07:31:36;;;;;;;5.82;3.63;;;;;;;;;;6094547;23;20428;-81
2022/06/15 07:34:03;;;;;;;7.20;2.90;;;;;;;;;;6094546;23;20501;-81
2022/06/15 07:36:29;;;;;;;5.68;3.13;;;;;;;;;;6093998;23;20118;-83
2022/06/15 07:38:56;;;;;;;5.43;3.30;;;;;;;;;;6094921;23;20057;-82
2022/06/15 07:41:23;;;;;;;71.22;26.10;;;;;;;;;;6093932;23;20006;-83
2022/06/15 07:43:49;;;;;;;121.88;42.22;;;;;;;;;;6094751;23;20010;-88
2022/06/15 07:46:20;;;;;;;12.32;5.43;;;;;;;;;;6095190;23;20003;-82
2022/06/15 07:51:31;;;;;;;5.60;2.63;;;;;;;;;;6094131;23;20518;-81
2022/06/15 07:53:58;;;;;;;3.85;2.13;;;;;;;;;;6069364;23;20006;-86
2022/06/15 07:56:31;;;;;;;5.15;2.63;;;;;;;;;;6095999;23;20002;-84
2022/06/15 07:58:57;;;;;;;5.38;2.33;;;;;;;;;;6096526;23;20011;-70
2022/06/15 08:01:24;;;;;;;5.22;2.30;;;;;;;;;;6096097;23;20006;-88
2022/06/15 08:03:50;;;;;;;4.28;2.08;;;;;;;;;;6070539;23;20073;-83
2022/06/15 08:06:17;;;;;;;3.70;1.92;;;;;;;;;;6096422;23;20431;-85
2022/06/15 08:08:43;;;;;;;4.43;2.05;;;;;;;;;;6096133;23;20013;-83
2022/06/15 08:11:09;;;;;;;3.25;2.30;;;;;;;;;;6069182;23;20014;-82
2022/06/15 08:13:41;;;;;;;3.88;1.75;;;;;;;;;;6096716;23;20014;-81
2022/06/15 08:16:16;;;;;;;4.05;1.67;;;;;;;;;;6096087;23;20022;-87
2022/06/15 08:18:45;;;;;;;3.90;1.77;;;;;;;;;;6070706;23;20081;-81
2022/06/15 08:21:14;;;;;;;2.92;2.15;;;;;;;;;;6095767;23;20002;-85
2022/06/15 08:23:44;;;;;;;2.97;1.90;;;;;;;;;;6070261;23;20018;-85
2022/06/15 08:26:28;;;;;;;3.42;2.47;;;;;;;;;;6095405;23;20002;-83
2022/06/15 08:28:56;;;;;;;4.57;2.15;;;;;;;;;;6071096;23;20083;-82
2022/06/15 08:31:33;;;;;;;3.70;2.13;;;;;;;;;;6096658;23;20030;-80
2022/06/15 08:34:02;;;;;;;3.85;1.90;;;;;;;;;;6069463;23;20069;-80
2022/06/15 08:36:28;;;;;;;3.13;1.77;;;;;;;;;;6096433;23;19995;-79
2022/06/15 08:38:56;;;;;;;4.00;1.80;;;;;;;;;;6096239;23;20009;-82
2022/06/15 08:41:30;;;;;;;5.60;1.80;;;;;;;;;;6096039;23;20006;-83
2022/06/15 08:44:34;;;;;;;3.15;2.00;;;;;;;;;;6095963;23;20442;-83
2022/06/15 08:47:29;;;;;;;2.80;1.40;;;;;;;;;;6049162;23;20018;-81
2022/06/15 08:50:14;;;;;;;4.15;1.75;;;;;;;;;;6065160;23;20494;-79
2022/06/15 08:52:45;;;;;;;3.60;1.80;;;;;;;;;;6095728;23;20081;-82
2022/06/15 08:55:37;;;;;;;5.15;2.30;;;;;;;;;;6096355;23;20069;-87
2022/06/15 08:58:11;;;;;;;4.28;1.90;;;;;;;;;;6080833;23;20010;-86
2022/06/15 09:00:38;;;;;;;3.60;1.92;;;;;;;;;;6070204;23;20474;-82
2022/06/15 09:03:17;;;;;;;3.10;1.63;;;;;;;;;;6095975;23;20010;-80
2022/06/15 09:05:43;;;;;;;4.32;1.90;;;;;;;;;;6046913;23;20002;-77
2022/06/15 09:08:21;;;;;;;2.33;1.67;;;;;;;;;;6096904;23;20007;-84
2022/06/15 09:11:06;;;;;;;3.38;1.33;;;;;;;;;;6044738;23;20014;-82
2022/06/15 09:13:51;;;;;;;4.18;1.83;;;;;;;;;;6095371;23;20022;-82
2022/06/15 09:16:29;;;;;;;4.38;1.55;;;;;;;;;;6096342;23;20007;-81
2022/06/15 09:19:02;;;;;;;3.55;1.50;;;;;;;;;;6070739;23;20316;-80
2022/06/15 09:21:47;;;;;;;3.35;1.67;;;;;;;;;;6095597;23;20003;-81
2022/06/15 09:24:18;;;;;;;2.55;2.00;;;;;;;;;;6095235;23;20096;-83
2022/06/15 09:27:13;;;;;;;2.83;1.83;;;;;;;;;;6095094;23;20010;-80
2022/06/15 09:29:45;;;;;;;8.02;4.55;;;;;;;;;;6065407;23;20034;-81
2022/06/15 09:32:18;;;;;;;3.13;1.35;;;;;;;;;;6068602;23;20675;-85
2022/06/15 09:35:13;;;;;;;5.47;3.28;;;;;;;;;;6095135;23;20002;-80
2022/06/15 09:37:43;;;;;;;2.22;1.30;;;;;;;;;;6065775;23;20014;-82
2022/06/15 09:40:10;;;;;;;5.32;1.98;;;;;;;;;;6094127;23;20003;-82
2022/06/15 09:42:36;;;;;;;2.20;1.48;;;;;;;;;;6069750;23;20010;-84
2022/06/15 09:45:21;;;;;;;2.45;1.70;;;;;;;;;;6095487;23;20029;-82
2022/06/15 09:47:47;;;;;;;2.45;1.60;;;;;;;;;;6069914;23;20422;-83
2022/06/15 09:50:19;;;;;;;3.13;1.42;;;;;;;;;;6069360;23;20010;-80
2022/06/15 09:53:04;;;;;;;2.15;1.50;;;;;;;;;;6095169;23;20300;-85
2022/06/15 09:55:37;;;;;;;4.10;2.38;;;;;;;;;;6095370;23;20030;-83
2022/06/15 09:58:05;;;;;;;2.08;1.30;;;;;;;;;;6069577;23;19994;-84
2022/06/15 10:00:31;;;;;;;3.13;1.60;;;;;;;;;;6095566;23;20069;-82
2022/06/15 10:03:02;;;;;;;1.88;1.17;;;;;;;;;;6069648;23;20010;-80
2022/06/15 10:05:33;;;;;;;3.05;1.55;;;;;;;;;;6070052;23;20018;-82
2022/06/15 10:08:02;;;;;;;3.72;1.67;;;;;;;;;;6095481;23;20034;-81
2022/06/15 10:10:32;;;;;;;6.65;3.03;;;;;;;;;;6094402;23;19998;-82
2022/06/15 10:13:02;;;;;;;18.95;7.10;;;;;;;;;;6095043;23;20034;-83
2022/06/15 10:15:33;;;;;;;35.72;13.50;;;;;;;;;;6068862;23;20057;-79
2022/06/15 10:18:04;;;;;;;13.70;5.80;;;;;;;;;;6095258;23;20009;-82
2022/06/15 10:20:41;;;;;;;8.52;3.70;;;;;;;;;;6094170;23;20010;-86
2022/06/15 10:23:16;;;;;;;30.73;12.50;;;;;;;;;;6094408;23;20050;-82
2022/06/15 10:25:48;;;;;;;45.83;17.60;;;;;;;;;;6094919;23;20330;-83
2022/06/15 10:28:21;;;;;;;24.27;9.88;;;;;;;;;;6095132;23;20013;-84
2022/06/15 10:31:01;;;;;;;7.47;3.07;;;;;;;;;;6094193;23;20007;-82
2022/06/15 10:33:38;;;;;;;36.13;14.13;;;;;;;;;;6094637;23;20213;-82
2022/06/15 10:36:13;;;;;;;25.42;10.25;;;;;;;;;;6068305;23;20435;-80
2022/06/15 10:38:42;;;;;;;17.08;6.65;;;;;;;;;;6094689;23;20069;-81
2022/06/15 10:43:53;;;;;;;10.63;4.90;;;;;;;;;;6095143;23;20048;-85
2022/06/15 10:46:21;;;;;;;7.45;4.13;;;;;;;;;;6045013;23;20019;-82
2022/06/15 10:48:49;;;;;;;7.78;2.80;;;;;;;;;;6068511;23;20018;-85
2022/06/15 10:51:15;;;;;;;11.98;5.07;;;;;;;;;;6094730;23;20046;-81
2022/06/15 10:53:44;;;;;;;3.80;1.30;;;;;;;;;;6095416;23;19998;-82
2022/06/15 11:02:26;;;;;;;9.55;4.70;;;;;;;;;;6095224;23;20354;-78
2022/06/15 11:05:03;;;;;;;6.78;2.50;;;;;;;;;;6094874;23;20007;-81
2022/06/15 11:07:32;;;;;;;5.55;2.53;;;;;;;;;;6093471;23;20002;-81
2022/06/15 11:09:58;;;;;;;6.40;2.83;;;;;;;;;;6094862;23;20403;-81
2022/06/15 11:12:33;;;;;;;6.40;2.95;;;;;;;;;;6094640;23;20012;-84
2022/06/15 11:15:01;;;;;;;24.92;9.45;;;;;;;;;;6069502;23;20018;-79
2022/06/15 11:20:35;;;;;;;74.03;28.33;;;;;;;;;;6094926;23;20050;-81
2022/06/15 11:23:21;;;;;;;62.45;22.52;;;;;;;;;;6093651;23;20009;-81
2022/06/15 11:25:51;;;;;;;74.68;26.20;;;;;;;;;;6068603;23;20006;-83
2022/06/15 11:28:20;;;;;;;60.83;21.10;;;;;;;;;;6093949;23;20007;-80
2022/06/15 11:30:58;;;;;;;47.42;19.13;;;;;;;;;;6094517;23;20414;-82
2022/06/15 11:33:42;;;;;;;55.28;21.23;;;;;;;;;;6094863;23;20009;-83
2022/06/15 11:36:28;;;;;;;3.63;2.00;;;;;;;;;;6095512;23;20098;-80
2022/06/15 11:38:59;;;;;;;4.90;2.33;;;;;;;;;;6069128;23;20013;-85
2022/06/15 11:41:28;;;;;;;3.08;2.00;;;;;;;;;;6095569;23;19998;-81
2022/06/15 11:43:56;;;;;;;4.82;2.40;;;;;;;;;;6094601;23;20006;-82
2022/06/15 11:46:29;;;;;;;5.38;2.30;;;;;;;;;;6095956;23;20030;-83
2022/06/15 11:49:02;;;;;;;6.32;2.15;;;;;;;;;;6095548;23;20002;-81
2022/06/15 11:51:51;;;;;;;6.50;2.83;;;;;;;;;;6095351;23;20154;-89
2022/06/15 11:54:36;;;;;;;4.22;2.53;;;;;;;;;;6095384;23;20029;-83
2022/06/15 11:57:05;;;;;;;5.03;3.00;;;;;;;;;;6095627;23;20002;-87
2022/06/15 11:59:52;;;;;;;6.55;3.10;;;;;;;;;;6095375;23;20064;-80
2022/06/15 12:02:41;;;;;;;5.43;3.45;;;;;;;;;;6050803;23;20021;-81
2022/06/15 12:05:26;;;;;;;6.07;2.55;;;;;;;;;;6078026;23;20066;-80
2022/06/15 12:07:56;;;;;;;4.35;2.38;;;;;;;;;;6095742;23;20033;-84
2022/06/15 12:10:34;;;;;;;5.05;3.50;;;;;;;;;;6095954;23;20009;-84
2022/06/15 12:13:18;;;;;;;12.13;3.75;;;;;;;;;;6069871;23;20319;-82
2022/06/15 12:15:46;;;;;;;4.80;2.30;;;;;;;;;;6069688;23;20014;-81
2022/06/15 12:18:12;;;;;;;5.25;2.90;;;;;;;;;;6095964;23;20002;-82
2022/06/15 12:20:38;;;;;;;4.20;2.25;;;;;;;;;;6095469;23;20030;-82
2022/06/15 12:23:04;;;;;;;4.78;2.67;;;;;;;;;;6095413;23;20010;-83
2022/06/15 12:25:43;;;;;;;54.95;20.63;;;;;;;;;;6095790;23;20029;-81
2022/06/15 12:28:28;;;;;;;13.25;7.53;;;;;;;;;;6070273;23;20093;-86
2022/06/15 12:31:01;;;;;;;14.18;12.23;;;;;;;;;;6095560;23;20050;-87
2022/06/15 12:33:36;;;;;;;13.90;6.43;;;;;;;;;;6070456;23;20002;-84
2022/06/15 12:36:21;;;;;;;26.00;14.95;;;;;;;;;;6094822;23;20026;-88
2022/06/15 12:38:58;;;;;;;21.42;11.02;;;;;;;;;;6096209;23;20054;-85
2022/06/15 12:44:20;;;;;;;32.38;13.70;;;;;;;;;;6097458;23;20065;-83
2022/06/15 12:46:47;;;;;;;72.35;29.85;;;;;;;;;;6097260;23;20379;-84
2022/06/15 12:49:34;;;;;;;32.03;12.68;;;;;;;;;;6096577;23;20069;-86
2022/06/15 12:52:00;;;;;;;71.50;28.50;;;;;;;;;;6071283;23;20042;-82
2022/06/15 12:54:34;;;;;;;152.65;56.35;;;;;;;;;;6071743;23;20007;-82
2022/06/15 12:57:19;;;;;;;102.63;39.35;;;;;;;;;;6097433;23;20058;-80
2022/06/15 12:59:45;;;;;;;123.88;45.97;;;;;;;;;;6097465;23;20002;-81
2022/06/15 13:02:44;;;;;;;76.38;29.85;;;;;;;;;;6097368;23;20426;-82
2022/06/15 13:05:19;;;;;;;43.38;17.50;;;;;;;;;;5995397;23;20061;-81
2022/06/15 13:08:05;;;;;;;47.75;18.75;;;;;;;;;;6068948;23;20034;-81
2022/06/15 13:10:32;;;;;;;6.22;3.28;;;;;;;;;;6097146;23;20003;-81
2022/06/15 13:13:04;;;;;;;4.78;2.42;;;;;;;;;;6071319;23;20335;-81
2022/06/15 13:15:30;;;;;;;7.15;3.38;;;;;;;;;;6097583;23;20003;-79
2022/06/15 13:18:08;;;;;;;9.75;4.60;;;;;;;;;;6096492;23;20005;-76
2022/06/15 13:20:53;;;;;;;4.03;2.10;;;;;;;;;;6097111;23;20006;-79
2022/06/15 13:23:31;;;;;;;3.53;1.63;;;;;;;;;;6096349;23;20041;-79
2022/06/15 13:26:03;;;;;;;5.45;3.03;;;;;;;;;;6096530;23;20030;-80
2022/06/15 13:28:32;;;;;;;4.00;2.15;;;;;;;;;;6071201;23;20051;-79
2022/06/15 13:31:02;;;;;;;5.95;2.00;;;;;;;;;;6096762;23;20010;-79
2022/06/15 13:33:46;;;;;;;3.33;2.30;;;;;;;;;;6096284;23;20444;-78
2022/06/15 13:36:12;;;;;;;3.88;1.88;;;;;;;;;;6096639;23;19999;-82
2022/06/15 13:38:39;;;;;;;4.75;2.00;;;;;;;;;;6096609;23;20450;-81
2022/06/15 13:41:07;;;;;;;4.20;1.98;;;;;;;;;;6096627;23;20013;-78
2022/06/15 13:43:51;;;;;;;3.75;2.35;;;;;;;;;;6097235;23;20025;-79
2022/06/15 13:46:37;;;;;;;3.03;2.00;;;;;;;;;;6096819;23;20085;-79
2022/06/15 13:49:25;;;;;;;3.08;1.88;;;;;;;;;;6096428;23;20069;-80
2022/06/15 13:52:09;;;;;;;2.90;1.73;;;;;;;;;;6096022;23;20003;-78
2022/06/15 13:54:51;;;;;;;3.60;1.95;;;;;;;;;;6096465;23;20033;-81
2022/06/15 13:57:35;;;;;;;4.45;2.60;;;;;;;;;;6096803;23;20003;-79
2022/06/15 14:00:08;;;;;;;5.05;2.55;;;;;;;;;;6096919;23;20030;-78
2022/06/15 14:02:37;;;;;;;9.10;6.43;;;;;;;;;;6071176;23;20006;-80
2022/06/15 14:05:21;;;;;;;2.65;2.35;;;;;;;;;;6096655;23;20030;-78
2022/06/15 14:07:48;;;;;;;4.38;1.92;;;;;;;;;;6096782;23;20007;-80
2022/06/15 14:10:23;;;;;;;6.13;2.53;;;;;;;;;;6070722;23;20446;-78
2022/06/15 14:13:08;;;;;;;3.10;2.15;;;;;;;;;;6096360;23;20415;-80
2022/06/15 14:15:37;;;;;;;2.53;1.60;;;;;;;;;;6096771;23;20010;-78
2022/06/15 14:18:15;;;;;;;2.92;2.15;;;;;;;;;;6096845;23;19998;-78
2022/06/15 14:20:46;;;;;;;3.47;2.00;;;;;;;;;;6096605;23;20037;-78
2022/06/15 14:23:26;;;;;;;4.18;1.92;;;;;;;;;;6096803;23;20054;-81
2022/06/15 14:25:53;;;;;;;6.10;2.08;;;;;;;;;;6096987;23;20329;-79
2022/06/15 14:28:26;;;;;;;4.35;1.75;;;;;;;;;;6096528;23;19998;-79
2022/06/15 14:31:10;;;;;;;3.35;1.80;;;;;;;;;;6048159;23;20021;-79
2022/06/15 14:33:39;;;;;;;3.55;1.48;;;;;;;;;;6096833;23;20040;-80
2022/06/15 14:36:11;;;;;;;4.13;1.77;;;;;;;;;;6096444;23;20005;-81
2022/06/15 14:38:38;;;;;;;2.72;1.75;;;;;;;;;;6096697;23;20002;-81
2022/06/15 14:41:23;;;;;;;6.68;2.20;;;;;;;;;;6096289;23;20042;-80
2022/06/15 14:43:51;;;;;;;2.53;1.45;;;;;;;;;;6096407;23;20430;-80
2022/06/15 14:46:22;;;;;;;5.25;1.85;;;;;;;;;;6096564;23;20092;-81
2022/06/15 14:48:50;;;;;;;3.72;2.42;;;;;;;;;;6096132;23;20453;-79
2022/06/15 14:51:19;;;;;;;8.50;2.20;;;;;;;;;;6096222;23;19998;-83
2022/06/15 14:53:57;;;;;;;3.67;1.80;;;;;;;;;;6096074;23;20085;-79
2022/06/15 14:56:24;;;;;;;2.40;1.40;;;;;;;;;;6096315;23;20003;-81
2022/06/15 14:58:58;;;;;;;4.47;2.13;;;;;;;;;;6096252;23;19999;-80
2022/06/15 15:01:24;;;;;;;4.63;1.90;;;;;;;;;;6096066;23;20057;-83
2022/06/15 15:03:50;;;;;;;2.38;1.50;;;;;;;;;;6096217;23;20009;-84
2022/06/15 15:06:19;;;;;;;3.00;1.80;;;;;;;;;;6095414;23;20012;-84
2022/06/15 15:08:48;;;;;;;4.15;1.50;;;;;;;;;;6095633;23;20319;-82
2022/06/15 15:11:33;;;;;;;4.78;1.95;;;;;;;;;;6096569;23;20057;-81
2022/06/15 15:14:21;;;;;;;3.25;1.70;;;;;;;;;;6070815;23;20056;-83
2022/06/15 15:17:08;;;;;;;2.20;1.50;;;;;;;;;;6096596;23;20014;-81
2022/06/15 15:19:41;;;;;;;4.32;1.95;;;;;;;;;;6096308;23;20030;-83
2022/06/15 15:22:11;;;;;;;2.80;1.70;;;;;;;;;;6070521;23;20010;-80
2022/06/15 15:24:48;;;;;;;3.30;1.70;;;;;;;;;;6096303;23;20006;-83
2022/06/15 15:27:16;;;;;;;3.08;2.42;;;;;;;;;;6096104;23;20002;-80